createdAt,value
2023-03-06T00:00:26.612Z,47.42
2023-03-06T00:02:54.358Z,47.90
2023-03-06T00:05:21.930Z,47.45
2023-03-06T00:07:49.368Z,47.80
2023-03-06T00:10:19.730Z,47.49
2023-03-06T00:12:47.163Z,48.11
2023-03-06T00:15:14.698Z,48.04
2023-03-06T00:17:42.407Z,48.14
2023-03-06T00:20:11.916Z,47.92
2023-03-06T00:22:39.570Z,48.06
2023-03-06T00:25:08.412Z,48.36
2023-03-06T00:27:35.904Z,48.17
2023-03-06T00:30:03.452Z,48.44
2023-03-06T00:32:31.337Z,48.39
2023-03-06T00:34:58.818Z,48.44
2023-03-06T00:37:26.331Z,47.82
2023-03-06T00:39:54.058Z,48.30
2023-03-06T00:42:22.533Z,48.28
2023-03-06T00:44:51.739Z,48.40
2023-03-06T00:47:19.358Z,48.35
2023-03-06T00:49:46.849Z,48.49
2023-03-06T00:52:14.589Z,48.66
2023-03-06T00:54:42.629Z,48.66
2023-03-06T00:57:10.102Z,48.97
2023-03-06T00:59:37.502Z,48.49
2023-03-06T01:02:05.165Z,48.26
2023-03-06T01:04:32.599Z,48.31
2023-03-06T01:06:59.970Z,48.86
2023-03-06T01:09:27.842Z,48.97
2023-03-06T01:11:55.861Z,48.66
2023-03-06T01:14:23.413Z,48.68
2023-03-06T01:16:51.078Z,48.47
2023-03-06T01:19:18.478Z,48.65
2023-03-06T01:21:46.082Z,48.99
2023-03-06T01:24:13.778Z,48.83
2023-03-06T01:26:41.202Z,48.72
2023-03-06T01:29:08.607Z,48.82
2023-03-06T01:31:36.259Z,48.65
2023-03-06T01:34:03.628Z,48.85
2023-03-06T01:36:31.040Z,49.24
2023-03-06T01:38:58.674Z,48.79
2023-03-06T01:41:26.279Z,48.59
2023-03-06T01:43:53.759Z,48.32
2023-03-06T01:46:24.858Z,48.13
2023-03-06T01:48:58.124Z,48.07
2023-03-06T01:51:31.154Z,48.38
2023-03-06T01:54:01.098Z,48.29
2023-03-06T01:56:28.995Z,47.87
2023-03-06T01:58:57.220Z,48.18
2023-03-06T02:01:24.724Z,47.70
2023-03-06T02:03:53.230Z,47.97
2023-03-06T02:06:21.952Z,48.09
2023-03-06T02:08:51.366Z,47.96
2023-03-06T02:11:21.804Z,48.43
2023-03-06T02:13:50.393Z,48.31
2023-03-06T02:16:21.968Z,47.92
2023-03-06T02:18:49.781Z,48.10
2023-03-06T02:21:26.134Z,47.58
2023-03-06T02:24:00.379Z,47.96
2023-03-06T02:26:28.185Z,48.47
2023-03-06T02:28:58.484Z,48.78
2023-03-06T02:31:29.507Z,48.69
2023-03-06T02:34:20.459Z,48.59
2023-03-06T02:36:50.617Z,47.88
2023-03-06T02:39:21.167Z,47.27
2023-03-06T02:41:48.897Z,47.75
2023-03-06T02:44:16.854Z,48.31
2023-03-06T02:46:44.548Z,48.17
2023-03-06T02:49:12.019Z,48.44
2023-03-06T02:51:39.420Z,47.93
2023-03-06T02:54:07.049Z,47.38
2023-03-06T02:56:34.455Z,48.07
2023-03-06T02:59:02.906Z,48.31
2023-03-06T03:01:31.165Z,48.27
2023-03-06T03:03:58.623Z,48.26
2023-03-06T03:06:26.336Z,47.64
2023-03-06T03:08:54.122Z,47.47
2023-03-06T03:11:21.597Z,47.97
2023-03-06T03:13:49.280Z,48.10
2023-03-06T03:16:17.839Z,47.92
2023-03-06T03:18:47.707Z,46.91
2023-03-06T03:21:15.989Z,47.30
2023-03-06T03:23:44.539Z,47.27
2023-03-06T03:26:15.235Z,47.56
2023-03-06T03:28:43.253Z,47.54
2023-03-06T03:31:12.358Z,47.39
2023-03-06T03:33:40.619Z,47.79
2023-03-06T03:36:08.879Z,47.78
2023-03-06T03:38:36.963Z,47.74
2023-03-06T03:41:04.606Z,47.72
2023-03-06T03:43:32.579Z,47.66
2023-03-06T03:46:00.724Z,47.73
2023-03-06T03:48:28.509Z,47.55
2023-03-06T03:51:06.251Z,47.92
2023-03-06T03:53:34.574Z,47.40
2023-03-06T03:56:02.229Z,47.11
2023-03-06T03:58:31.030Z,47.39
2023-03-06T04:00:58.749Z,47.40
2023-03-06T04:03:26.726Z,47.26
2023-03-06T04:05:55.394Z,47.72
2023-03-06T04:08:24.176Z,48.12
2023-03-06T04:10:53.059Z,48.26
2023-03-06T04:13:22.044Z,48.40
2023-03-06T04:15:51.851Z,48.35
2023-03-06T04:18:20.737Z,48.48
2023-03-06T04:20:49.667Z,48.20
2023-03-06T04:23:19.115Z,47.82
2023-03-06T04:25:47.172Z,47.87
2023-03-06T04:28:14.815Z,47.87
2023-03-06T04:30:42.663Z,47.45
2023-03-06T04:33:10.720Z,48.14
2023-03-06T04:35:38.718Z,47.76
2023-03-06T04:38:06.534Z,48.38
2023-03-06T04:40:37.241Z,48.34
2023-03-06T04:43:05.687Z,47.96
2023-03-06T04:45:33.853Z,48.44
2023-03-06T04:48:02.194Z,48.09
2023-03-06T04:50:32.589Z,47.66
2023-03-06T04:53:01.590Z,48.33
2023-03-06T04:55:29.465Z,48.41
2023-03-06T04:57:57.665Z,48.25
2023-03-06T05:00:31.437Z,47.94
2023-03-06T05:03:00.611Z,48.41
2023-03-06T05:05:28.631Z,48.56
2023-03-06T05:07:56.338Z,48.68
2023-03-06T05:10:24.125Z,48.81
2023-03-06T05:12:51.568Z,49.08
2023-03-06T05:15:19.005Z,48.89
2023-03-06T05:17:47.500Z,48.72
2023-03-06T05:20:16.667Z,48.50
2023-03-06T05:22:44.607Z,48.99
2023-03-06T05:25:12.294Z,49.29
2023-03-06T05:27:39.692Z,48.60
2023-03-06T05:30:07.864Z,48.54
2023-03-06T05:32:36.075Z,49.24
2023-03-06T05:35:04.339Z,48.87
2023-03-06T05:37:32.364Z,48.64
2023-03-06T05:40:00.182Z,49.30
2023-03-06T05:42:28.765Z,49.34
2023-03-06T05:44:56.213Z,49.13
2023-03-06T05:47:23.841Z,49.37
2023-03-06T05:49:51.287Z,49.29
2023-03-06T05:52:18.723Z,49.00
2023-03-06T05:54:50.517Z,49.40
2023-03-06T05:57:19.958Z,49.43
2023-03-06T05:59:49.280Z,49.86
2023-03-06T06:02:18.021Z,50.06
2023-03-06T06:04:45.780Z,49.90
2023-03-06T06:07:14.688Z,49.59
2023-03-06T06:09:45.273Z,49.53
2023-03-06T06:12:13.398Z,49.17
2023-03-06T06:14:40.811Z,49.30
2023-03-06T06:17:08.205Z,49.52
2023-03-06T06:19:35.983Z,49.70
2023-03-06T06:22:03.759Z,49.75
2023-03-06T06:24:31.621Z,49.07
2023-03-06T06:27:00.014Z,49.03
2023-03-06T06:29:29.004Z,48.52
2023-03-06T06:31:56.766Z,48.63
2023-03-06T06:34:24.777Z,48.63
2023-03-06T06:36:53.600Z,49.00
2023-03-06T06:39:22.684Z,48.90
2023-03-06T06:42:03.286Z,48.68
2023-03-06T06:44:38.027Z,48.84
2023-03-06T06:47:24.231Z,49.08
2023-03-06T06:49:53.851Z,48.98
2023-03-06T06:52:22.603Z,48.85
2023-03-06T06:54:50.044Z,48.33
2023-03-06T06:57:17.505Z,48.71
2023-03-06T06:59:45.413Z,48.75
2023-03-06T07:02:14.144Z,48.55
2023-03-06T07:04:52.710Z,48.58
2023-03-06T07:07:28.556Z,67.55
2023-03-06T07:09:56.006Z,59.78
2023-03-06T07:12:23.708Z,53.14
2023-03-06T07:14:51.389Z,50.67
2023-03-06T07:17:18.782Z,48.87
2023-03-06T07:19:46.146Z,47.44
2023-03-06T07:22:14.051Z,46.71
2023-03-06T07:24:41.569Z,46.79
2023-03-06T07:27:08.941Z,47.47
2023-03-06T07:29:36.621Z,46.94
2023-03-06T07:32:04.122Z,46.56
2023-03-06T07:34:31.837Z,46.29
2023-03-06T07:36:59.585Z,46.79
2023-03-06T07:39:28.051Z,46.76
2023-03-06T07:41:55.495Z,47.19
2023-03-06T07:44:23.203Z,47.33
2023-03-06T07:46:50.607Z,47.39
2023-03-06T07:49:18.123Z,46.80
2023-03-06T07:51:45.958Z,47.66
2023-03-06T07:54:13.349Z,46.82
2023-03-06T07:56:40.781Z,47.23
2023-03-06T07:59:10.841Z,47.74
2023-03-06T08:01:40.161Z,47.20
2023-03-06T08:04:08.042Z,47.07
2023-03-06T08:06:35.606Z,47.25
2023-03-06T08:09:03.471Z,46.87
2023-03-06T08:11:31.215Z,47.23
2023-03-06T08:13:59.175Z,47.57
2023-03-06T08:16:29.110Z,47.26
2023-03-06T08:18:57.671Z,47.91
2023-03-06T08:21:27.138Z,48.04
2023-03-06T08:23:54.506Z,48.73
2023-03-06T08:26:27.509Z,47.87
2023-03-06T08:28:57.785Z,46.74
2023-03-06T08:31:27.320Z,46.21
2023-03-06T08:33:55.407Z,46.70
2023-03-06T08:36:22.838Z,47.18
2023-03-06T08:38:50.857Z,45.82
2023-03-06T08:41:20.293Z,46.26
2023-03-06T08:43:48.455Z,46.43
2023-03-06T08:46:18.713Z,45.81
2023-03-06T08:48:49.039Z,46.85
2023-03-06T08:51:17.417Z,46.00
2023-03-06T08:53:44.946Z,47.38
2023-03-06T08:56:20.685Z,45.96
2023-03-06T08:58:48.846Z,45.44
2023-03-06T09:01:18.598Z,45.34
2023-03-06T09:03:46.440Z,45.97
2023-03-06T09:06:14.287Z,45.37
2023-03-06T09:08:43.937Z,44.30
2023-03-06T09:11:12.845Z,45.31
2023-03-06T09:13:40.968Z,44.95
2023-03-06T09:16:09.611Z,44.04
2023-03-06T09:18:37.054Z,43.75
2023-03-06T09:21:05.658Z,43.18
2023-03-06T09:23:33.658Z,43.23
2023-03-06T09:26:01.976Z,44.12
2023-03-06T09:28:29.694Z,43.26
2023-03-06T09:30:57.146Z,42.26
2023-03-06T09:33:24.570Z,42.04
2023-03-06T09:35:55.101Z,42.88
2023-03-06T09:38:25.247Z,42.60
2023-03-06T09:40:58.729Z,42.39
2023-03-06T09:43:47.198Z,42.47
2023-03-06T09:46:36.710Z,42.60
2023-03-06T09:49:32.745Z,41.81
2023-03-06T09:52:16.116Z,41.40
2023-03-06T09:55:08.044Z,41.60
2023-03-06T09:57:38.703Z,41.02
2023-03-06T10:00:13.327Z,42.03
2023-03-06T10:02:45.265Z,41.48
2023-03-06T10:05:20.646Z,42.30
2023-03-06T10:08:01.807Z,42.10
2023-03-06T10:11:03.684Z,42.52
2023-03-06T10:13:38.752Z,43.03
2023-03-06T10:16:28.102Z,42.47
2023-03-06T10:18:59.596Z,42.26
2023-03-06T10:21:51.349Z,41.86
2023-03-06T10:24:56.728Z,41.42
2023-03-06T10:27:33.416Z,41.17
2023-03-06T10:30:19.867Z,40.91
2023-03-06T10:33:11.357Z,41.39
2023-03-06T10:35:50.386Z,41.37
2023-03-06T10:38:31.531Z,41.47
2023-03-06T10:41:16.054Z,41.26
2023-03-06T10:43:45.250Z,41.37
2023-03-06T10:46:14.882Z,40.92
2023-03-06T10:48:42.729Z,40.73
2023-03-06T10:51:19.426Z,40.70
2023-03-06T10:53:51.814Z,41.27
2023-03-06T10:56:33.859Z,40.27
2023-03-06T10:59:17.674Z,41.21
2023-03-06T11:01:47.286Z,41.10
2023-03-06T11:04:21.161Z,40.77
2023-03-06T11:06:48.893Z,40.67
2023-03-06T11:09:26.254Z,40.08
2023-03-06T11:12:23.720Z,40.72
2023-03-06T11:15:20.913Z,40.84
2023-03-06T11:17:48.182Z,40.90
2023-03-06T11:20:21.203Z,41.19
2023-03-06T11:22:58.456Z,41.00
2023-03-06T11:25:32.268Z,40.79
2023-03-06T11:28:28.510Z,40.90
2023-03-06T11:31:21.107Z,40.32
2023-03-06T11:33:55.398Z,40.69
2023-03-06T11:36:36.151Z,40.75
2023-03-06T11:39:15.624Z,40.60
2023-03-06T11:42:05.000Z,40.11
2023-03-06T11:44:42.353Z,40.00
2023-03-06T11:47:26.502Z,39.95
2023-03-06T11:50:10.717Z,39.73
2023-03-06T11:52:52.946Z,39.49
2023-03-06T11:56:04.996Z,39.21
2023-03-06T11:58:44.926Z,39.10
2023-03-06T12:01:34.234Z,39.01
2023-03-06T12:04:23.489Z,39.02
2023-03-06T12:07:07.631Z,39.42
2023-03-06T12:10:31.559Z,39.20
2023-03-06T12:13:01.829Z,39.04
2023-03-06T12:16:17.314Z,38.93
2023-03-06T12:18:51.193Z,39.08
2023-03-06T12:21:29.207Z,39.11
2023-03-06T12:24:21.461Z,38.73
2023-03-06T12:27:06.754Z,39.07
2023-03-06T12:29:39.950Z,38.21
2023-03-06T12:32:17.673Z,38.12
2023-03-06T12:35:27.895Z,38.57
2023-03-06T12:38:30.842Z,38.03
2023-03-06T12:41:23.161Z,37.87
2023-03-06T12:43:59.780Z,37.03
2023-03-06T12:46:28.199Z,36.94
2023-03-06T12:49:05.359Z,37.39
2023-03-06T12:51:33.452Z,36.74
2023-03-06T12:54:02.417Z,36.67
2023-03-06T12:56:30.982Z,36.01
2023-03-06T12:59:02.451Z,36.74
2023-03-06T13:01:44.780Z,36.34
2023-03-06T13:04:27.287Z,36.56
2023-03-06T13:07:06.959Z,36.11
2023-03-06T13:10:02.170Z,35.87
2023-03-06T13:12:49.757Z,36.13
2023-03-06T13:15:44.105Z,36.15
2023-03-06T13:18:23.856Z,36.68
2023-03-06T13:21:00.309Z,36.63
2023-03-06T13:23:34.547Z,36.52
2023-03-06T13:26:02.780Z,36.40
2023-03-06T13:28:50.226Z,36.70
2023-03-06T13:31:28.827Z,36.67
2023-03-06T13:34:03.530Z,36.66
2023-03-06T13:36:39.025Z,36.79
2023-03-06T13:39:11.627Z,36.54
2023-03-06T13:41:53.713Z,36.00
2023-03-06T13:44:24.512Z,36.13
2023-03-06T13:47:30.262Z,36.67
2023-03-06T13:49:58.766Z,37.14
2023-03-06T13:52:40.645Z,37.30
2023-03-06T13:55:13.622Z,37.89
2023-03-06T13:58:11.564Z,38.36
2023-03-06T14:01:13.478Z,38.59
2023-03-06T14:03:56.082Z,39.60
2023-03-06T14:06:35.417Z,39.58
2023-03-06T14:09:07.820Z,40.03
2023-03-06T14:11:35.367Z,40.51
2023-03-06T14:14:03.433Z,40.74
2023-03-06T14:16:49.488Z,40.99
2023-03-06T14:19:18.827Z,41.14
2023-03-06T14:21:49.586Z,41.52
2023-03-06T14:24:19.535Z,41.79
2023-03-06T14:26:50.179Z,41.82
2023-03-06T14:29:30.761Z,41.82
2023-03-06T14:31:59.808Z,42.25
2023-03-06T14:34:33.836Z,42.41
2023-03-06T14:37:03.424Z,42.19
2023-03-06T14:39:33.593Z,42.76
2023-03-06T14:42:19.060Z,43.12
2023-03-06T14:45:18.783Z,43.05
2023-03-06T14:47:50.985Z,43.41
2023-03-06T14:50:33.015Z,43.80
2023-03-06T14:53:05.105Z,43.70
2023-03-06T14:55:35.079Z,43.99
2023-03-06T14:58:07.688Z,44.23
2023-03-06T15:00:40.860Z,44.75
2023-03-06T15:03:16.512Z,44.46
2023-03-06T15:05:45.621Z,45.81
2023-03-06T15:08:18.328Z,44.77
2023-03-06T15:10:56.289Z,44.09
2023-03-06T15:13:26.840Z,44.61
2023-03-06T15:16:22.646Z,44.82
2023-03-06T15:19:01.642Z,44.83
2023-03-06T15:21:37.062Z,44.31
2023-03-06T15:24:31.598Z,44.22
2023-03-06T15:27:05.302Z,44.47
2023-03-06T15:29:33.206Z,44.28
2023-03-06T15:32:33.777Z,44.62
2023-03-06T15:35:27.860Z,44.67
2023-03-06T15:37:56.193Z,45.01
2023-03-06T15:40:26.191Z,44.85
2023-03-06T15:42:53.535Z,46.34
2023-03-06T15:45:25.769Z,45.33
2023-03-06T15:47:54.592Z,47.05
2023-03-06T15:50:25.831Z,45.28
2023-03-06T15:52:53.512Z,45.57
2023-03-06T15:55:23.136Z,45.51
2023-03-06T15:57:57.264Z,45.67
2023-03-06T16:00:30.189Z,45.98
2023-03-06T16:02:58.857Z,45.49
2023-03-06T16:05:27.707Z,45.52
2023-03-06T16:07:55.441Z,45.88
2023-03-06T16:10:25.654Z,45.90
2023-03-06T16:13:09.571Z,46.31
2023-03-06T16:15:46.329Z,46.05
2023-03-06T16:18:13.953Z,45.88
2023-03-06T16:20:41.866Z,46.07
2023-03-06T16:23:10.385Z,46.45
2023-03-06T16:25:39.853Z,46.19
2023-03-06T16:28:15.343Z,46.58
2023-03-06T16:30:43.813Z,46.65
2023-03-06T16:33:12.457Z,47.11
2023-03-06T16:35:41.096Z,46.74
2023-03-06T16:38:10.153Z,46.94
2023-03-06T16:40:41.183Z,46.82
2023-03-06T16:43:09.710Z,46.89
2023-03-06T16:45:39.419Z,47.39
2023-03-06T16:48:07.480Z,47.67
2023-03-06T16:50:39.205Z,47.99
2023-03-06T16:53:08.001Z,47.39
2023-03-06T16:55:35.419Z,47.21
2023-03-06T16:58:02.856Z,47.45
2023-03-06T17:00:33.044Z,47.34
2023-03-06T17:03:01.520Z,47.08
2023-03-06T17:05:29.662Z,46.88
2023-03-06T17:07:57.344Z,46.90
2023-03-06T17:10:26.463Z,47.00
2023-03-06T17:12:55.564Z,46.74
2023-03-06T17:15:23.879Z,46.89
2023-03-06T17:17:52.269Z,47.01
2023-03-06T17:20:19.953Z,47.29
2023-03-06T17:22:47.787Z,47.25
2023-03-06T17:25:15.306Z,47.25
2023-03-06T17:27:42.679Z,48.21
2023-03-06T17:30:10.963Z,55.02
2023-03-06T17:32:40.736Z,48.90
2023-03-06T17:35:09.321Z,55.44
2023-03-06T17:37:37.235Z,50.69
2023-03-06T17:40:08.121Z,47.45
2023-03-06T17:42:35.650Z,46.52
2023-03-06T17:45:04.369Z,46.94
2023-03-06T17:47:31.812Z,47.09
2023-03-06T17:49:59.278Z,47.02
2023-03-06T17:52:27.147Z,47.23
2023-03-06T17:54:54.483Z,47.83
2023-03-06T17:57:21.857Z,47.92
2023-03-06T17:59:49.482Z,47.88
2023-03-06T18:02:16.968Z,47.97
2023-03-06T18:04:44.837Z,47.99
2023-03-06T18:07:12.192Z,47.76
2023-03-06T18:09:42.159Z,48.35
2023-03-06T18:12:10.432Z,48.23
2023-03-06T18:14:38.138Z,48.09
2023-03-06T18:17:05.618Z,48.25
2023-03-06T18:19:33.358Z,48.55
2023-03-06T18:22:00.857Z,49.00
2023-03-06T18:24:28.292Z,48.67
2023-03-06T18:26:55.965Z,49.20
2023-03-06T18:29:23.395Z,49.20
2023-03-06T18:31:51.043Z,49.29
2023-03-06T18:34:18.774Z,49.07
2023-03-06T18:36:51.554Z,49.13
2023-03-06T18:39:21.419Z,49.70
2023-03-06T18:41:48.848Z,49.75
2023-03-06T18:44:17.454Z,50.17
2023-03-06T18:46:45.287Z,50.33
2023-03-06T18:49:13.939Z,50.17
2023-03-06T18:51:42.313Z,50.46
2023-03-06T18:54:10.450Z,50.47
2023-03-06T18:56:39.780Z,51.13
2023-03-06T18:59:07.577Z,51.06
2023-03-06T19:01:35.565Z,50.63
2023-03-06T19:04:04.281Z,50.54
2023-03-06T19:06:31.806Z,50.80
2023-03-06T19:09:01.430Z,50.76
2023-03-06T19:11:29.918Z,50.34
2023-03-06T19:13:57.726Z,50.77
2023-03-06T19:16:27.645Z,51.66
2023-03-06T19:18:55.637Z,51.50
2023-03-06T19:21:25.146Z,51.87
2023-03-06T19:23:52.848Z,52.17
2023-03-06T19:26:20.887Z,52.72
2023-03-06T19:28:49.247Z,52.59
2023-03-06T19:31:24.134Z,52.08
2023-03-06T19:33:56.506Z,52.47
2023-03-06T19:36:28.597Z,52.33
2023-03-06T19:39:01.531Z,52.19
2023-03-06T19:41:29.337Z,52.02
2023-03-06T19:43:58.898Z,51.82
2023-03-06T19:46:27.365Z,52.27
2023-03-06T19:49:02.588Z,52.49
2023-03-06T19:51:30.221Z,52.31
2023-03-06T19:53:57.958Z,52.50
2023-03-06T19:56:28.800Z,52.69
2023-03-06T19:58:56.571Z,52.03
2023-03-06T20:01:26.168Z,52.28
2023-03-06T20:03:58.689Z,51.91
2023-03-06T20:06:27.550Z,51.74
2023-03-06T20:08:55.262Z,51.58
2023-03-06T20:11:25.731Z,51.91
2023-03-06T20:13:53.450Z,51.99
2023-03-06T20:16:21.203Z,52.09
2023-03-06T20:18:48.688Z,52.30
2023-03-06T20:21:16.125Z,52.03
2023-03-06T20:23:43.798Z,52.06
2023-03-06T20:26:13.632Z,52.00
2023-03-06T20:28:42.124Z,51.82
2023-03-06T20:31:20.763Z,51.86
2023-03-06T20:33:52.602Z,51.61
2023-03-06T20:36:27.955Z,52.13
2023-03-06T20:38:56.069Z,51.55
2023-03-06T20:41:26.085Z,51.49
2023-03-06T20:43:53.939Z,51.95
2023-03-06T20:46:23.031Z,52.03
2023-03-06T20:48:52.197Z,52.27
2023-03-06T20:51:25.612Z,52.01
2023-03-06T20:53:53.354Z,52.32
2023-03-06T20:56:23.727Z,51.97
2023-03-06T20:58:51.940Z,52.39
2023-03-06T21:01:27.628Z,52.72
2023-03-06T21:03:56.865Z,52.73
2023-03-06T21:06:25.738Z,52.31
2023-03-06T21:08:53.384Z,52.40
2023-03-06T21:11:21.658Z,52.59
2023-03-06T21:13:49.435Z,52.43
2023-03-06T21:16:19.604Z,52.46
2023-03-06T21:18:47.549Z,52.43
2023-03-06T21:21:18.444Z,52.86
2023-03-06T21:23:47.488Z,52.96
2023-03-06T21:26:23.145Z,53.07
2023-03-06T21:28:50.906Z,52.83
2023-03-06T21:31:20.168Z,52.63
2023-03-06T21:33:48.729Z,52.85
2023-03-06T21:36:16.978Z,53.26
2023-03-06T21:38:44.736Z,53.41
2023-03-06T21:41:17.125Z,53.15
2023-03-06T21:43:45.023Z,53.10
2023-03-06T21:46:13.009Z,53.16
2023-03-06T21:48:40.599Z,53.26
2023-03-06T21:51:09.613Z,53.27
2023-03-06T21:53:37.871Z,53.30
2023-03-06T21:56:05.537Z,53.30
2023-03-06T21:58:33.334Z,53.31
2023-03-06T22:01:00.719Z,53.25
2023-03-06T22:03:31.628Z,53.78
2023-03-06T22:06:10.766Z,54.20
2023-03-06T22:08:39.118Z,54.26
2023-03-06T22:11:17.782Z,54.77
2023-03-06T22:13:46.228Z,54.52
2023-03-06T22:16:14.223Z,54.45
2023-03-06T22:18:44.834Z,54.33
2023-03-06T22:21:14.633Z,54.45
2023-03-06T22:23:42.454Z,54.52
2023-03-06T22:26:12.587Z,54.05
2023-03-06T22:28:40.773Z,53.98
2023-03-06T22:31:19.711Z,54.10
2023-03-06T22:33:51.138Z,54.28
2023-03-06T22:36:19.229Z,53.91
2023-03-06T22:38:48.187Z,54.00
2023-03-06T22:41:17.168Z,54.01
2023-03-06T22:43:44.591Z,54.12
2023-03-06T22:46:14.435Z,54.40
2023-03-06T22:48:42.434Z,54.26
2023-03-06T22:51:12.896Z,54.29
2023-03-06T22:53:40.689Z,53.89
2023-03-06T22:56:10.345Z,54.53
2023-03-06T22:58:37.834Z,54.59
2023-03-06T23:01:11.510Z,54.93
2023-03-06T23:03:40.681Z,53.90
2023-03-06T23:06:20.127Z,54.41
2023-03-06T23:08:55.730Z,54.41
2023-03-06T23:11:23.553Z,54.06
2023-03-06T23:14:18.250Z,53.96
2023-03-06T23:17:04.906Z,54.05
2023-03-06T23:19:50.906Z,54.17
2023-03-06T23:22:36.584Z,54.35
2023-03-06T23:25:22.914Z,54.46
2023-03-06T23:27:51.022Z,54.44
2023-03-06T23:30:18.658Z,54.84
2023-03-06T23:32:46.211Z,54.56
2023-03-06T23:35:14.409Z,54.81
2023-03-06T23:37:42.116Z,54.52
2023-03-06T23:40:10.174Z,54.40
2023-03-06T23:42:37.876Z,54.55
2023-03-06T23:45:05.773Z,54.70
2023-03-06T23:47:34.021Z,54.63
2023-03-06T23:50:01.700Z,54.47
2023-03-06T23:52:29.066Z,54.46
2023-03-06T23:54:56.474Z,54.85
2023-03-06T23:57:24.175Z,54.50
2023-03-06T23:59:51.621Z,54.69
